Time;durP1;ratioP1;P1;durP2;ratioP2;P2;SDS_P1;SDS_P2;PMS_P1;PMS_P2;Temp;Humidity;BMP_temperature;BMP_pressure;BME280_temperature;BME280_humidity;BME280_pressure;Samples;Min_cycle;Max_cycle;Signal;HPM_P1;HPM_P2
2021/04/29 00:00:56;;;;;;;7.75;5.13;;;11.30;52.50;;;;;;5073681;28;20044;-74
2021/04/29 00:03:22;;;;;;;9.48;5.85;;;11.30;52.80;;;;;;5073477;28;20492;-74
2021/04/29 00:05:47;;;;;;;7.13;5.47;;;11.30;52.90;;;;;;5073357;28;20498;-74
2021/04/29 00:08:13;;;;;;;8.95;6.00;;;11.30;52.90;;;;;;5072877;28;20040;-74
2021/04/29 00:10:39;;;;;;;10.20;5.50;;;11.30;53.40;;;;;;5071880;28;20117;-75
2021/04/29 00:13:04;;;;;;;13.75;6.65;;;11.20;53.70;;;;;;5071796;28;20036;-74
2021/04/29 00:15:30;;;;;;;9.00;5.47;;;11.20;53.80;;;;;;5073476;28;20064;-74
2021/04/29 00:17:56;;;;;;;8.13;5.25;;;11.10;53.60;;;;;;5072977;28;20043;-74
2021/04/29 00:20:23;;;;;;;10.07;5.70;;;11.10;53.80;;;;;;5072993;28;20028;-74
2021/04/29 00:22:49;;;;;;;8.20;5.50;;;11.10;53.80;;;;;;5071678;28;20025;-75
2021/04/29 00:25:15;;;;;;;8.25;5.00;;;11.10;54.00;;;;;;5071652;28;20021;-74
2021/04/29 00:27:41;;;;;;;9.82;6.05;;;11.10;53.90;;;;;;5072933;28;20430;-74
2021/04/29 00:30:09;;;;;;;7.93;5.20;;;11.10;54.10;;;;;;5072971;28;20083;-74
2021/04/29 00:32:36;;;;;;;10.60;5.70;;;11.10;54.20;;;;;;5071556;28;20029;-74
2021/04/29 00:35:02;;;;;;;7.57;4.93;;;11.00;54.20;;;;;;5072875;28;20491;-74
2021/04/29 00:37:28;;;;;;;8.30;5.10;;;11.10;54.20;;;;;;5072791;28;20495;-74
2021/04/29 00:39:54;;;;;;;9.35;5.57;;;11.00;54.30;;;;;;5072347;28;20028;-74
2021/04/29 00:42:19;;;;;;;8.45;5.70;;;11.00;54.50;;;;;;5076826;28;20376;-74
2021/04/29 00:44:45;;;;;;;11.40;6.25;;;11.00;54.60;;;;;;5075580;28;20486;-74
2021/04/29 00:47:11;;;;;;;8.68;5.82;;;10.90;54.80;;;;;;5075505;28;20067;-74
2021/04/29 00:49:39;;;;;;;7.65;5.47;;;10.90;55.10;;;;;;5075507;28;20039;-74
2021/04/29 00:52:06;;;;;;;10.05;6.00;;;10.90;55.30;;;;;;5076706;28;20028;-74
2021/04/29 00:54:31;;;;;;;10.00;6.07;;;10.90;55.30;;;;;;5076713;28;20103;-74
2021/04/29 00:56:57;;;;;;;10.50;5.93;;;10.90;55.40;;;;;;5076686;28;20048;-74
2021/04/29 00:59:23;;;;;;;10.82;5.88;;;10.90;55.50;;;;;;5076566;28;20479;-74
2021/04/29 01:01:56;;;;;;;8.50;6.00;;;10.90;55.50;;;;;;5075137;28;20024;-74
2021/04/29 01:04:51;;;;;;;10.77;6.57;;;10.90;55.60;;;;;;5075145;28;20123;-74
2021/04/29 01:07:18;;;;;;;10.77;6.28;;;10.80;55.80;;;;;;5076373;28;20389;-74
2021/04/29 01:09:59;;;;;;;11.02;6.38;;;10.80;56.10;;;;;;5076386;28;20498;-74
2021/04/29 01:12:44;;;;;;;9.02;5.90;;;10.80;56.10;;;;;;5076352;28;20116;-74
2021/04/29 01:15:11;;;;;;;8.63;6.35;;;10.80;56.30;;;;;;5076553;28;20060;-74
2021/04/29 01:17:39;;;;;;;11.48;6.35;;;10.70;56.20;;;;;;5074979;28;20032;-74
2021/04/29 01:20:13;;;;;;;11.07;5.68;;;10.70;56.50;;;;;;5076197;28;20028;-74
2021/04/29 01:22:44;;;;;;;8.95;6.35;;;10.70;56.50;;;;;;5074914;28;20480;-74
2021/04/29 01:25:14;;;;;;;8.75;6.25;;;10.70;56.60;;;;;;5076119;28;20041;-74
2021/04/29 01:27:40;;;;;;;11.02;5.97;;;10.70;56.80;;;;;;5076083;28;20050;-74
2021/04/29 01:30:11;;;;;;;9.27;5.38;;;10.70;56.80;;;;;;5076020;28;20082;-73
2021/04/29 01:32:37;;;;;;;8.90;6.47;;;10.60;56.90;;;;;;5074679;28;20384;-73
2021/04/29 01:35:08;;;;;;;10.48;5.93;;;10.60;57.20;;;;;;5075947;28;20433;-73
2021/04/29 01:37:36;;;;;;;8.68;5.55;;;10.50;57.20;;;;;;5075833;28;20029;-73
2021/04/29 01:40:03;;;;;;;10.63;6.72;;;10.50;57.50;;;;;;5075858;28;20035;-73
2021/04/29 01:42:29;;;;;;;11.65;6.40;;;10.40;57.80;;;;;;5074415;28;20029;-73
2021/04/29 01:44:55;;;;;;;11.60;6.18;;;10.40;57.90;;;;;;5074515;28;20043;-73
2021/04/29 01:47:21;;;;;;;9.30;6.38;;;10.30;58.10;;;;;;5074356;28;20029;-73
2021/04/29 01:49:48;;;;;;;10.98;6.47;;;10.30;58.10;;;;;;5075886;28;20044;-73
2021/04/29 01:52:14;;;;;;;8.07;6.28;;;10.20;58.20;;;;;;5073652;28;20051;-75
2021/04/29 01:54:41;;;;;;;9.13;6.70;;;10.20;58.30;;;;;;5075569;28;20082;-73
2021/04/29 01:57:07;;;;;;;8.70;6.40;;;10.20;58.50;;;;;;5074296;28;20553;-73
2021/04/29 01:59:34;;;;;;;11.75;7.00;;;10.20;58.60;;;;;;5075488;28;20034;-73
2021/04/29 02:02:00;;;;;;;13.55;6.50;;;10.10;58.70;;;;;;5074154;28;20086;-73
2021/04/29 02:04:25;;;;;;;9.90;6.90;;;10.10;58.90;;;;;;5074129;28;20028;-73
2021/04/29 02:06:51;;;;;;;11.05;6.95;;;10.10;59.00;;;;;;5075554;28;20525;-74
2021/04/29 02:09:17;;;;;;;10.93;7.07;;;10.10;59.20;;;;;;5075231;28;20119;-74
2021/04/29 02:12:00;;;;;;;9.82;7.22;;;10.00;59.40;;;;;;5075492;28;20116;-74
2021/04/29 02:14:38;;;;;;;9.80;6.78;;;10.00;59.50;;;;;;5073917;28;20495;-73
2021/04/29 02:17:12;;;;;;;10.93;7.10;;;10.00;59.60;;;;;;5075138;28;20032;-73
2021/04/29 02:19:41;;;;;;;9.77;6.30;;;9.90;59.60;;;;;;5075087;28;20475;-73
2021/04/29 02:22:08;;;;;;;9.95;6.65;;;10.00;59.70;;;;;;5075042;28;20111;-73
2021/04/29 02:24:35;;;;;;;11.65;7.18;;;10.00;59.80;;;;;;5073660;28;20035;-74
2021/04/29 02:27:02;;;;;;;10.20;7.13;;;9.90;59.70;;;;;;5074960;28;20020;-73
2021/04/29 02:29:28;;;;;;;9.73;7.15;;;9.90;59.80;;;;;;5074895;28;20032;-73
2021/04/29 02:31:54;;;;;;;10.77;7.18;;;10.00;60.00;;;;;;5074885;28;20062;-74
2021/04/29 02:34:21;;;;;;;11.43;7.35;;;10.00;60.00;;;;;;5073431;28;20028;-74
2021/04/29 02:36:46;;;;;;;11.98;7.57;;;10.00;60.30;;;;;;5074759;28;20075;-74
2021/04/29 02:39:13;;;;;;;9.70;6.38;;;10.00;60.40;;;;;;5074613;28;20067;-74
2021/04/29 02:41:39;;;;;;;9.75;7.03;;;10.00;60.50;;;;;;5074802;28;20388;-74
2021/04/29 02:44:05;;;;;;;10.32;6.82;;;9.90;60.30;;;;;;5074654;28;20040;-73
2021/04/29 02:46:34;;;;;;;10.32;7.03;;;10.00;60.50;;;;;;5074558;28;20063;-74
2021/04/29 02:49:01;;;;;;;11.27;7.32;;;10.00;60.50;;;;;;5073244;28;20090;-74
2021/04/29 02:51:27;;;;;;;10.80;7.50;;;10.00;60.50;;;;;;5073131;28;20028;-74
2021/04/29 02:53:53;;;;;;;12.25;7.10;;;10.00;60.60;;;;;;5074822;28;20074;-74
2021/04/29 02:56:19;;;;;;;9.90;6.97;;;10.00;60.60;;;;;;5074342;28;20152;-74
2021/04/29 02:58:47;;;;;;;10.15;6.97;;;10.10;60.80;;;;;;5073050;28;20036;-74
2021/04/29 03:01:12;;;;;;;11.50;8.15;;;10.00;60.90;;;;;;5074204;28;20032;-74
2021/04/29 03:03:39;;;;;;;11.75;8.02;;;10.00;61.40;;;;;;5073485;28;20219;-73
2021/04/29 03:06:05;;;;;;;9.93;7.32;;;10.00;61.60;;;;;;5074211;28;20032;-73
2021/04/29 03:08:31;;;;;;;13.30;8.10;;;10.00;61.60;;;;;;5074035;28;20480;-74
2021/04/29 03:10:57;;;;;;;12.25;7.50;;;10.00;61.80;;;;;;5072739;28;20025;-73
2021/04/29 03:13:23;;;;;;;11.27;7.82;;;10.00;61.70;;;;;;5073985;28;20434;-73
2021/04/29 03:15:48;;;;;;;10.48;7.00;;;9.90;61.70;;;;;;5073989;28;20472;-73
2021/04/29 03:18:14;;;;;;;10.65;6.82;;;9.90;61.70;;;;;;5073920;28;20068;-73
2021/04/29 03:20:41;;;;;;;9.60;7.00;;;10.00;61.70;;;;;;5072387;28;20412;-73
2021/04/29 03:23:06;;;;;;;10.90;7.68;;;10.00;61.70;;;;;;5073828;28;20024;-73
2021/04/29 03:25:32;;;;;;;11.27;7.30;;;10.00;61.70;;;;;;5072364;28;20020;-73
2021/04/29 03:27:58;;;;;;;11.82;7.47;;;10.10;61.80;;;;;;5074254;28;20032;-73
2021/04/29 03:30:23;;;;;;;10.98;8.00;;;10.10;61.80;;;;;;5074088;28;20023;-73
2021/04/29 03:32:49;;;;;;;11.90;8.18;;;10.20;61.90;;;;;;5072345;28;20063;-74
2021/04/29 03:35:15;;;;;;;11.75;8.13;;;10.20;61.80;;;;;;5072152;28;20115;-74
2021/04/29 03:37:40;;;;;;;12.10;7.75;;;10.20;62.00;;;;;;5072482;28;20025;-74
2021/04/29 03:40:07;;;;;;;10.80;7.85;;;10.30;62.00;;;;;;5072124;28;20119;-74
2021/04/29 03:42:33;;;;;;;10.25;8.05;;;10.30;62.00;;;;;;5072046;28;20074;-74
2021/04/29 03:44:58;;;;;;;11.65;7.70;;;10.30;61.90;;;;;;5073518;28;20024;-73
2021/04/29 03:47:24;;;;;;;11.25;7.60;;;10.30;61.90;;;;;;5072097;28;20024;-74
2021/04/29 03:49:50;;;;;;;11.20;7.90;;;10.30;61.90;;;;;;5073685;28;20028;-74
2021/04/29 03:52:15;;;;;;;11.30;7.85;;;10.30;61.90;;;;;;5073576;28;20480;-74
2021/04/29 03:54:41;;;;;;;10.65;7.82;;;10.30;62.00;;;;;;5073547;28;20028;-74
2021/04/29 03:57:07;;;;;;;10.90;7.70;;;10.40;62.00;;;;;;5073687;28;20104;-74
2021/04/29 03:59:33;;;;;;;10.95;7.22;;;10.40;62.00;;;;;;5073172;28;20425;-74
2021/04/29 04:01:58;;;;;;;11.18;7.30;;;10.40;61.90;;;;;;5073167;28;20035;-74
2021/04/29 04:04:24;;;;;;;12.02;7.35;;;10.40;61.90;;;;;;5071801;28;20024;-73
2021/04/29 04:06:50;;;;;;;11.90;7.88;;;10.40;61.80;;;;;;5073053;28;20049;-74
2021/04/29 04:09:15;;;;;;;12.85;7.70;;;10.40;61.80;;;;;;5071596;28;20020;-74
2021/04/29 04:11:41;;;;;;;12.70;7.70;;;10.40;61.80;;;;;;5073039;28;20032;-74
2021/04/29 04:14:06;;;;;;;11.85;7.47;;;10.40;61.90;;;;;;5071674;28;20391;-74
2021/04/29 04:16:32;;;;;;;11.18;7.50;;;10.40;62.00;;;;;;5072654;28;20036;-74
2021/04/29 04:18:58;;;;;;;14.27;7.40;;;10.30;62.30;;;;;;5071609;28;20035;-74
2021/04/29 04:21:25;;;;;;;9.70;7.75;;;10.30;62.50;;;;;;5072799;28;20533;-74
2021/04/29 04:23:51;;;;;;;10.45;7.70;;;10.30;62.90;;;;;;5071666;28;20020;-74
2021/04/29 04:26:17;;;;;;;10.25;7.70;;;10.20;63.70;;;;;;5073170;28;20103;-74
2021/04/29 04:28:42;;;;;;;11.68;7.93;;;10.10;63.20;;;;;;5071474;28;20463;-74
2021/04/29 04:31:08;;;;;;;8.90;6.88;;;10.10;63.50;;;;;;5071434;28;20073;-74
2021/04/29 04:33:34;;;;;;;11.15;7.75;;;10.10;63.70;;;;;;5072713;28;20052;-73
2021/04/29 04:35:59;;;;;;;10.57;8.27;;;9.90;64.70;;;;;;5072738;28;20025;-74
2021/04/29 04:38:25;;;;;;;11.10;8.55;;;9.70;66.10;;;;;;5071466;28;20056;-74
2021/04/29 04:40:51;;;;;;;14.98;8.63;;;9.40;67.20;;;;;;5071351;28;20035;-74
2021/04/29 04:43:16;;;;;;;14.68;7.75;;;9.10;69.00;;;;;;5071229;28;20051;-73
2021/04/29 04:45:43;;;;;;;11.68;8.60;;;8.80;70.40;;;;;;5071259;28;20552;-73
2021/04/29 04:48:10;;;;;;;13.57;9.65;;;8.50;71.60;;;;;;5072901;28;20108;-73
2021/04/29 04:50:36;;;;;;;11.52;8.75;;;8.40;73.20;;;;;;5072717;28;20086;-73
2021/04/29 04:53:02;;;;;;;13.02;9.55;;;8.20;73.30;;;;;;5071356;28;20387;-73
2021/04/29 04:55:28;;;;;;;12.50;10.02;;;8.20;73.30;;;;;;5072342;28;20104;-74
2021/04/29 04:57:53;;;;;;;12.45;9.35;;;8.10;73.70;;;;;;5071188;28;20541;-73
2021/04/29 05:00:19;;;;;;;13.52;9.80;;;8.20;74.30;;;;;;5072293;28;20028;-74
2021/04/29 05:02:45;;;;;;;14.38;10.48;;;8.20;74.50;;;;;;5071112;28;20033;-74
2021/04/29 05:05:11;;;;;;;16.27;10.88;;;8.30;75.20;;;;;;5072542;28;20024;-74
2021/04/29 05:07:37;;;;;;;15.80;10.55;;;8.30;76.10;;;;;;5072071;28;20045;-74
2021/04/29 05:10:04;;;;;;;12.68;9.52;;;8.30;75.50;;;;;;5071018;28;20552;-74
2021/04/29 05:12:29;;;;;;;15.77;10.32;;;8.40;75.80;;;;;;5072344;28;20028;-74
2021/04/29 05:14:55;;;;;;;17.95;10.30;;;8.40;75.70;;;;;;5072423;28;20488;-74
2021/04/29 05:17:21;;;;;;;15.75;11.13;;;8.40;75.40;;;;;;5072156;28;20032;-74
2021/04/29 05:19:46;;;;;;;17.70;12.60;;;8.50;76.10;;;;;;5072230;28;20036;-74
2021/04/29 05:22:14;;;;;;;15.52;11.15;;;8.50;76.30;;;;;;5072029;28;20032;-74
2021/04/29 05:24:43;;;;;;;17.23;12.32;;;8.50;76.30;;;;;;5070753;28;20020;-73
2021/04/29 05:27:12;;;;;;;15.50;11.32;;;8.60;76.70;;;;;;5071828;28;20119;-74
2021/04/29 05:29:38;;;;;;;19.17;13.05;;;8.70;76.80;;;;;;5074390;28;20027;-73
2021/04/29 05:32:04;;;;;;;17.33;13.20;;;8.70;76.80;;;;;;5074429;28;20399;-74
2021/04/29 05:34:32;;;;;;;17.10;11.57;;;8.70;76.90;;;;;;5074351;28;20032;-74
2021/04/29 05:36:58;;;;;;;15.27;10.98;;;8.70;76.80;;;;;;5074352;28;20039;-74
2021/04/29 05:39:24;;;;;;;15.20;11.35;;;8.80;76.90;;;;;;5075537;28;20040;-73
2021/04/29 05:41:49;;;;;;;14.40;11.18;;;8.80;76.80;;;;;;5075830;28;20086;-74
2021/04/29 05:44:15;;;;;;;18.15;11.55;;;8.90;76.70;;;;;;5075446;28;20049;-74
2021/04/29 05:46:43;;;;;;;13.55;10.45;;;9.00;76.80;;;;;;5075485;28;20036;-74
2021/04/29 05:49:09;;;;;;;17.50;11.75;;;9.10;76.60;;;;;;5075354;28;20029;-74
2021/04/29 05:51:35;;;;;;;16.73;11.95;;;9.10;76.50;;;;;;5075358;28;20138;-74
2021/04/29 05:54:00;;;;;;;15.57;11.77;;;9.10;76.60;;;;;;5073947;28;20028;-73
2021/04/29 05:56:26;;;;;;;16.20;11.63;;;9.10;76.60;;;;;;5075290;28;20438;-74
2021/04/29 05:58:52;;;;;;;17.90;12.77;;;9.20;76.70;;;;;;5075241;28;20059;-74
2021/04/29 06:01:17;;;;;;;13.75;11.68;;;9.20;77.00;;;;;;5073779;28;20115;-74
2021/04/29 06:03:43;;;;;;;15.30;11.15;;;9.30;76.80;;;;;;5073844;28;20024;-73
2021/04/29 06:06:09;;;;;;;16.23;11.95;;;9.30;76.80;;;;;;5073726;28;20024;-73
2021/04/29 06:08:34;;;;;;;19.38;12.90;;;9.30;76.80;;;;;;5073697;28;20419;-73
2021/04/29 06:11:00;;;;;;;14.68;11.15;;;9.30;76.80;;;;;;5075098;28;20029;-74
2021/04/29 06:13:26;;;;;;;14.02;10.63;;;9.20;76.90;;;;;;5073663;28;20031;-74
2021/04/29 06:15:51;;;;;;;16.73;12.27;;;9.20;76.90;;;;;;5074919;28;20060;-74
2021/04/29 06:18:20;;;;;;;15.80;11.77;;;9.20;77.10;;;;;;5075005;28;20058;-73
2021/04/29 06:20:46;;;;;;;16.98;12.57;;;9.20;77.30;;;;;;5073378;28;20032;-73
2021/04/29 06:23:12;;;;;;;14.05;11.23;;;9.10;77.50;;;;;;5075207;28;20017;-73
2021/04/29 06:25:38;;;;;;;16.48;12.13;;;9.10;77.70;;;;;;5074820;28;20107;-73
2021/04/29 06:28:03;;;;;;;15.43;11.50;;;9.10;77.70;;;;;;5073453;28;20035;-74
2021/04/29 06:30:29;;;;;;;32.85;14.77;;;9.10;77.50;;;;;;5074799;28;20033;-73
2021/04/29 06:32:55;;;;;;;14.55;11.90;;;9.10;77.40;;;;;;5073439;28;20083;-74
2021/04/29 06:35:20;;;;;;;16.92;11.80;;;9.10;77.70;;;;;;5073449;28;20025;-74
2021/04/29 06:37:46;;;;;;;15.02;12.05;;;9.10;77.70;;;;;;5073245;28;20025;-74
2021/04/29 06:40:14;;;;;;;14.07;10.40;;;9.10;77.70;;;;;;5073204;28;20553;-74
2021/04/29 06:42:40;;;;;;;17.92;12.25;;;9.20;78.00;;;;;;5073024;28;20111;-74
2021/04/29 06:45:06;;;;;;;14.68;11.20;;;9.20;77.60;;;;;;5074651;28;20024;-75
2021/04/29 06:47:33;;;;;;;15.07;11.73;;;9.30;77.50;;;;;;5074433;28;20029;-74
2021/04/29 06:49:59;;;;;;;16.25;11.63;;;9.30;77.60;;;;;;5074526;28;20023;-74
2021/04/29 06:52:25;;;;;;;15.07;11.35;;;9.30;77.70;;;;;;5073037;28;20063;-74
2021/04/29 06:54:51;;;;;;;15.00;11.05;;;9.40;77.70;;;;;;5074577;28;20070;-74
2021/04/29 06:57:17;;;;;;;16.08;12.07;;;9.30;77.80;;;;;;5074275;28;20031;-74
2021/04/29 06:59:43;;;;;;;15.20;11.38;;;9.30;78.20;;;;;;5072767;28;20472;-74
2021/04/29 07:02:09;;;;;;;18.15;12.23;;;9.40;79.10;;;;;;5074048;28;20031;-74
2021/04/29 07:04:35;;;;;;;15.18;11.55;;;9.40;78.20;;;;;;5074000;28;20380;-74
2021/04/29 07:07:03;;;;;;;16.13;11.77;;;9.40;78.70;;;;;;5072579;28;20059;-74
2021/04/29 07:09:28;;;;;;;15.57;11.95;;;9.30;78.40;;;;;;5072551;28;20063;-74
2021/04/29 07:11:54;;;;;;;14.95;11.32;;;9.40;78.40;;;;;;5072630;28;20066;-74
2021/04/29 07:14:21;;;;;;;13.40;10.75;;;9.40;78.40;;;;;;5073917;28;20056;-74
2021/04/29 07:16:47;;;;;;;15.18;11.32;;;9.50;78.40;;;;;;5072585;28;20070;-75
2021/04/29 07:19:12;;;;;;;14.73;11.40;;;9.50;78.20;;;;;;5072557;28;20419;-74
2021/04/29 07:21:38;;;;;;;13.75;11.48;;;9.60;78.30;;;;;;5072371;28;20020;-74
2021/04/29 07:24:04;;;;;;;17.90;13.05;;;9.60;78.90;;;;;;5074027;28;20052;-74
2021/04/29 07:26:30;;;;;;;18.42;12.15;;;9.60;78.60;;;;;;5073742;28;20024;-74
2021/04/29 07:28:55;;;;;;;19.48;12.50;;;9.60;79.20;;;;;;5073952;28;20583;-74
2021/04/29 07:31:21;;;;;;;16.48;12.05;;;9.70;78.90;;;;;;5072355;28;20324;-74
2021/04/29 07:33:47;;;;;;;16.98;10.73;;;9.70;78.60;;;;;;5072278;28;20067;-74
2021/04/29 07:36:12;;;;;;;18.35;12.30;;;9.80;78.70;;;;;;5072053;28;20383;-74
2021/04/29 07:38:38;;;;;;;15.98;11.50;;;9.80;78.50;;;;;;5073994;28;20040;-75
2021/04/29 07:41:05;;;;;;;15.50;12.65;;;9.90;78.30;;;;;;5072078;28;20480;-74
2021/04/29 07:43:31;;;;;;;15.32;11.55;;;10.00;78.40;;;;;;5073535;28;20071;-74
2021/04/29 07:45:57;;;;;;;14.98;11.25;;;10.00;78.20;;;;;;5073502;28;20063;-74
2021/04/29 07:48:22;;;;;;;13.30;10.77;;;10.10;77.90;;;;;;5073420;28;20017;-74
2021/04/29 07:50:48;;;;;;;15.15;11.25;;;10.20;77.90;;;;;;5071513;28;20555;-74
2021/04/29 07:53:14;;;;;;;13.40;10.82;;;10.40;77.80;;;;;;5073486;28;20480;-74
2021/04/29 07:55:39;;;;;;;16.77;11.68;;;10.40;77.70;;;;;;5072175;28;20131;-74
2021/04/29 07:58:05;;;;;;;13.23;10.93;;;10.50;77.70;;;;;;5072044;28;20456;-74
2021/04/29 08:00:31;;;;;;;14.38;11.40;;;10.50;77.50;;;;;;5071955;28;20054;-74
2021/04/29 08:02:57;;;;;;;15.38;11.48;;;10.60;77.40;;;;;;5072320;28;20495;-74
2021/04/29 08:05:22;;;;;;;15.07;11.82;;;10.60;77.30;;;;;;5071849;28;20021;-74
2021/04/29 08:07:50;;;;;;;16.05;12.77;;;10.60;77.30;;;;;;5073013;28;20048;-74
2021/04/29 08:10:16;;;;;;;16.58;11.18;;;10.60;77.20;;;;;;5073043;28;20445;-75
2021/04/29 08:12:42;;;;;;;14.38;10.68;;;10.60;77.20;;;;;;5071863;28;20029;-74
2021/04/29 08:15:08;;;;;;;14.27;11.07;;;10.60;77.00;;;;;;5073023;28;20518;-75
2021/04/29 08:17:34;;;;;;;14.52;12.13;;;10.70;77.00;;;;;;5072991;28;20020;-74
2021/04/29 08:20:00;;;;;;;12.45;11.02;;;10.70;76.90;;;;;;5071386;28;20024;-74
2021/04/29 08:22:27;;;;;;;15.07;11.25;;;10.80;76.90;;;;;;5072685;28;20044;-74
2021/04/29 08:24:57;;;;;;;14.00;11.52;;;10.80;76.80;;;;;;5071541;28;20356;-74
2021/04/29 08:27:26;;;;;;;13.68;11.05;;;10.80;76.80;;;;;;5072726;28;20032;-74
2021/04/29 08:29:53;;;;;;;14.13;11.68;;;10.80;76.80;;;;;;5072872;28;20023;-74
2021/04/29 08:32:18;;;;;;;13.20;10.35;;;10.80;76.80;;;;;;5073206;28;20025;-74
2021/04/29 08:34:44;;;;;;;16.65;11.15;;;10.80;76.80;;;;;;5070933;28;20039;-74
2021/04/29 08:37:10;;;;;;;14.05;10.75;;;10.80;76.70;;;;;;5071350;28;20107;-74
2021/04/29 08:39:39;;;;;;;13.00;10.68;;;10.80;76.60;;;;;;5072911;28;20089;-74
2021/04/29 08:42:05;;;;;;;15.25;10.35;;;10.70;76.50;;;;;;5072569;28;20060;-74
2021/04/29 08:44:32;;;;;;;13.32;10.07;;;10.70;76.50;;;;;;5072680;28;20070;-74
2021/04/29 08:46:58;;;;;;;12.05;10.02;;;10.70;77.10;;;;;;5072607;28;20099;-74
2021/04/29 08:49:25;;;;;;;13.77;10.05;;;10.80;76.40;;;;;;5072563;28;20100;-74
2021/04/29 08:51:54;;;;;;;12.35;10.00;;;10.80;76.30;;;;;;5071115;28;20028;-74
2021/04/29 08:54:19;;;;;;;11.85;10.00;;;10.80;76.30;;;;;;5071257;28;20017;-74
2021/04/29 08:56:46;;;;;;;12.63;9.95;;;10.80;76.20;;;;;;5071131;28;20499;-74
2021/04/29 08:59:12;;;;;;;10.77;8.98;;;10.90;76.10;;;;;;5072502;28;20094;-74
2021/04/29 09:01:39;;;;;;;9.90;8.85;;;10.90;76.00;;;;;;5072643;28;20024;-74
2021/04/29 09:04:16;;;;;;;12.77;9.82;;;10.80;75.90;;;;;;5075185;28;20017;-74
2021/04/29 09:06:44;;;;;;;11.38;9.52;;;10.90;76.00;;;;;;5076592;28;20403;-74
2021/04/29 09:09:11;;;;;;;11.13;9.20;;;10.90;76.00;;;;;;5076182;28;20016;-74
2021/04/29 09:11:47;;;;;;;11.82;9.85;;;10.90;76.00;;;;;;5074878;28;20031;-74
2021/04/29 09:14:13;;;;;;;11.82;9.38;;;10.90;75.90;;;;;;5076163;28;20074;-74
2021/04/29 09:16:43;;;;;;;11.98;9.73;;;11.00;75.80;;;;;;5074819;28;20013;-74
2021/04/29 09:19:28;;;;;;;11.38;9.77;;;11.00;75.60;;;;;;5076207;28;20134;-74
2021/04/29 09:21:55;;;;;;;10.90;9.00;;;11.10;75.50;;;;;;5074975;28;20031;-74
2021/04/29 09:24:39;;;;;;;14.23;9.55;;;11.10;75.30;;;;;;5074788;28;20476;-74
2021/04/29 09:27:14;;;;;;;12.77;9.75;;;11.10;75.10;;;;;;5074711;28;20021;-74
2021/04/29 09:29:58;;;;;;;11.77;9.52;;;11.10;75.10;;;;;;5074583;28;20111;-74
2021/04/29 09:32:35;;;;;;;12.05;9.80;;;11.10;75.10;;;;;;5074587;28;20024;-74
2021/04/29 09:35:05;;;;;;;12.38;9.60;;;11.00;75.10;;;;;;5075918;28;20086;-74
2021/04/29 09:37:40;;;;;;;12.32;9.88;;;11.00;75.20;;;;;;5075741;28;20028;-74
2021/04/29 09:40:20;;;;;;;11.70;9.60;;;11.00;75.30;;;;;;5075688;28;20028;-74
2021/04/29 09:42:47;;;;;;;12.35;9.57;;;10.90;75.30;;;;;;5074635;28;20060;-74
2021/04/29 09:45:27;;;;;;;12.27;9.80;;;10.90;75.30;;;;;;5074406;28;20020;-74
2021/04/29 09:47:58;;;;;;;12.75;9.95;;;10.80;75.40;;;;;;5074398;28;20120;-74
2021/04/29 09:50:29;;;;;;;14.05;11.02;;;10.80;75.50;;;;;;5075595;28;20085;-74
2021/04/29 09:53:00;;;;;;;14.80;11.48;;;10.80;75.60;;;;;;5075522;28;20496;-74
2021/04/29 09:55:27;;;;;;;14.38;10.68;;;10.80;75.70;;;;;;5074120;28;20025;-74
2021/04/29 09:58:01;;;;;;;13.55;10.93;;;10.80;75.80;;;;;;5075441;28;20036;-74
2021/04/29 10:00:27;;;;;;;14.52;10.63;;;10.80;75.90;;;;;;5073836;28;20047;-74
2021/04/29 10:02:53;;;;;;;14.25;11.02;;;10.80;76.00;;;;;;5073982;28;20013;-74
2021/04/29 10:05:18;;;;;;;14.65;11.45;;;10.80;76.00;;;;;;5075247;28;20048;-75
2021/04/29 10:07:44;;;;;;;13.15;10.77;;;10.80;76.00;;;;;;5074840;28;20081;-74
2021/04/29 10:10:11;;;;;;;14.05;10.65;;;10.80;76.00;;;;;;5075110;28;20025;-74
2021/04/29 10:12:39;;;;;;;13.80;11.02;;;10.80;76.00;;;;;;5073389;28;20024;-74
2021/04/29 10:15:05;;;;;;;15.98;12.05;;;10.90;76.20;;;;;;5073826;28;20039;-75
2021/04/29 10:17:31;;;;;;;15.05;11.50;;;10.90;76.20;;;;;;5073546;28;20357;-75
2021/04/29 10:19:59;;;;;;;12.88;10.35;;;11.00;76.20;;;;;;5075030;28;20028;-75
2021/04/29 10:22:26;;;;;;;16.30;12.63;;;11.00;76.20;;;;;;5074924;28;20031;-75
2021/04/29 10:24:52;;;;;;;17.25;12.25;;;10.90;76.20;;;;;;5073590;28;20380;-75
2021/04/29 10:27:26;;;;;;;17.38;12.13;;;10.90;76.30;;;;;;5073571;28;20031;-75
2021/04/29 10:30:09;;;;;;;17.50;12.50;;;10.80;76.40;;;;;;5073578;28;20085;-75
2021/04/29 10:32:36;;;;;;;14.30;11.63;;;10.80;76.50;;;;;;5074758;28;20029;-73
2021/04/29 10:35:23;;;;;;;16.10;11.93;;;10.70;76.60;;;;;;5073416;28;20111;-75
2021/04/29 10:38:02;;;;;;;14.70;11.85;;;10.70;76.70;;;;;;5073313;28;20028;-74
2021/04/29 10:40:35;;;;;;;14.63;12.20;;;10.70;76.80;;;;;;5073236;28;20501;-74
2021/04/29 10:43:02;;;;;;;16.75;12.70;;;10.70;76.80;;;;;;5073192;28;20024;-74
2021/04/29 10:45:28;;;;;;;17.75;12.05;;;10.70;76.90;;;;;;5072916;28;20025;-74
2021/04/29 10:48:05;;;;;;;17.73;12.35;;;10.80;77.00;;;;;;5073220;28;20025;-74
2021/04/29 10:50:51;;;;;;;14.48;12.07;;;10.80;77.20;;;;;;5072992;28;20108;-74
2021/04/29 10:53:34;;;;;;;14.32;11.93;;;10.80;77.30;;;;;;5074249;28;20020;-74
2021/04/29 10:56:09;;;;;;;14.05;11.13;;;10.80;77.60;;;;;;5072976;28;20020;-74
2021/04/29 10:58:36;;;;;;;14.10;11.02;;;10.80;77.60;;;;;;5074361;28;20496;-74
2021/04/29 11:01:04;;;;;;;15.82;11.40;;;10.80;77.70;;;;;;5074075;28;20035;-74
2021/04/29 11:03:53;;;;;;;15.77;11.30;;;10.90;77.80;;;;;;5074062;28;20025;-74
2021/04/29 11:06:23;;;;;;;13.43;10.88;;;10.90;77.70;;;;;;5074057;28;20028;-73
2021/04/29 11:08:51;;;;;;;15.30;11.23;;;11.00;77.60;;;;;;5072574;28;20032;-73
2021/04/29 11:11:21;;;;;;;12.82;10.77;;;11.00;77.80;;;;;;5073960;28;20051;-73
2021/04/29 11:13:57;;;;;;;13.32;11.15;;;10.90;77.80;;;;;;5072560;28;20033;-74
2021/04/29 11:16:23;;;;;;;12.85;10.27;;;10.80;78.00;;;;;;5073740;28;20025;-74
2021/04/29 11:18:49;;;;;;;14.05;11.57;;;10.80;78.10;;;;;;5072506;28;20383;-74
2021/04/29 11:21:24;;;;;;;12.60;10.80;;;10.70;78.30;;;;;;5073702;28;20025;-74
2021/04/29 11:23:50;;;;;;;14.48;10.73;;;10.70;78.30;;;;;;5072412;28;20040;-74
2021/04/29 11:26:19;;;;;;;11.88;9.55;;;10.80;78.30;;;;;;5071711;28;20040;-74
2021/04/29 11:28:47;;;;;;;9.85;8.60;;;11.00;78.40;;;;;;5072225;28;20020;-74
2021/04/29 11:31:13;;;;;;;9.43;8.23;;;10.90;78.10;;;;;;5073424;28;20016;-74
2021/04/29 11:33:47;;;;;;;9.50;7.88;;;10.90;78.10;;;;;;5072129;28;20361;-74
2021/04/29 11:36:29;;;;;;;8.60;7.70;;;10.90;78.20;;;;;;5072190;28;20072;-74
2021/04/29 11:38:57;;;;;;;7.97;6.97;;;10.80;78.10;;;;;;5071928;28;20029;-74
2021/04/29 11:41:24;;;;;;;8.70;7.35;;;10.70;78.10;;;;;;5071865;28;20025;-74
2021/04/29 11:44:01;;;;;;;7.30;6.50;;;10.60;78.20;;;;;;5073330;28;20096;-74
2021/04/29 11:46:29;;;;;;;8.48;7.57;;;10.50;78.40;;;;;;5073230;28;20017;-74
2021/04/29 11:49:01;;;;;;;11.23;7.85;;;10.40;78.50;;;;;;5071933;28;20039;-74
2021/04/29 11:51:28;;;;;;;10.88;7.65;;;10.30;78.60;;;;;;5073178;28;20024;-74
2021/04/29 11:54:00;;;;;;;9.13;7.55;;;10.30;78.50;;;;;;5073366;28;20046;-74
2021/04/29 11:56:36;;;;;;;9.13;7.55;;;10.20;78.40;;;;;;5071877;28;20441;-74
2021/04/29 11:59:04;;;;;;;9.32;7.32;;;10.20;78.20;;;;;;5071715;28;20476;-74
2021/04/29 12:01:30;;;;;;;8.68;7.78;;;10.30;78.20;;;;;;5071664;28;20447;-74
2021/04/29 12:03:55;;;;;;;9.30;7.80;;;10.30;78.30;;;;;;5071698;28;20024;-74
2021/04/29 12:06:22;;;;;;;8.95;7.60;;;10.30;78.40;;;;;;5071456;28;20024;-74
2021/04/29 12:08:48;;;;;;;8.13;7.30;;;10.30;78.20;;;;;;5073283;28;20026;-75
2021/04/29 12:11:14;;;;;;;8.88;7.28;;;10.40;77.90;;;;;;5071744;28;20028;-74
2021/04/29 12:13:47;;;;;;;9.85;7.97;;;10.40;77.70;;;;;;5072985;28;20066;-74
2021/04/29 12:16:17;;;;;;;;;;;10.40;77.70;;;;;;5072110;28;20039;-74
2021/04/29 12:18:51;;;;;;;9.85;8.25;;;10.40;77.60;;;;;;5071533;28;20225;-74
2021/04/29 12:21:18;;;;;;;9.55;7.63;;;10.40;77.60;;;;;;5067067;28;20034;-74
2021/04/29 12:23:44;;;;;;;8.73;7.18;;;10.30;77.60;;;;;;5071565;28;20021;-75
2021/04/29 12:26:14;;;;;;;8.52;7.43;;;10.20;77.70;;;;;;5072867;28;20013;-75
2021/04/29 12:28:42;;;;;;;9.40;7.53;;;10.20;77.90;;;;;;5071494;28;20425;-75
2021/04/29 12:31:22;;;;;;;8.98;7.00;;;10.10;77.90;;;;;;5071871;28;20082;-74
2021/04/29 12:34:00;;;;;;;6.97;6.25;;;10.00;77.70;;;;;;5072053;28;20544;-75
2021/04/29 12:36:26;;;;;;;7.25;5.90;;;10.00;77.80;;;;;;5073133;28;20024;-75
2021/04/29 12:38:52;;;;;;;6.57;5.40;;;10.10;77.70;;;;;;5075674;28;20118;-74
2021/04/29 12:41:18;;;;;;;6.38;5.32;;;10.10;77.40;;;;;;5076357;28;20025;-75